createdAt,value
2022-07-29T00:00:12.249Z,23.51
2022-07-29T00:02:16.963Z,23.50
2022-07-29T00:04:22.013Z,23.49
2022-07-29T00:06:27.021Z,23.49
2022-07-29T00:08:34.238Z,23.47
2022-07-29T00:10:39.198Z,23.46
2022-07-29T00:12:43.842Z,23.48
2022-07-29T00:14:48.883Z,23.53
2022-07-29T00:16:53.957Z,23.56
2022-07-29T00:19:01.871Z,23.56
2022-07-29T00:21:07.095Z,23.50
2022-07-29T00:23:14.480Z,23.43
2022-07-29T00:25:21.661Z,23.44
2022-07-29T00:27:26.279Z,23.48
2022-07-29T00:29:34.057Z,23.52
2022-07-29T00:31:39.322Z,23.57
2022-07-29T00:33:43.918Z,23.56
2022-07-29T00:35:46.064Z,23.53
2022-07-29T00:37:50.673Z,23.50
2022-07-29T00:39:55.256Z,23.49
2022-07-29T00:42:02.484Z,23.48
2022-07-29T00:44:07.194Z,23.50
2022-07-29T00:46:11.774Z,23.54
2022-07-29T00:48:16.555Z,23.57
2022-07-29T00:50:21.672Z,23.57
2022-07-29T00:52:26.429Z,23.58
2022-07-29T00:54:31.316Z,23.59
2022-07-29T00:56:36.441Z,23.57
2022-07-29T00:58:43.916Z,23.54
2022-07-29T01:00:48.711Z,23.50
2022-07-29T01:02:53.362Z,23.45
2022-07-29T01:04:58.171Z,23.50
2022-07-29T01:07:04.486Z,23.55
2022-07-29T01:09:09.705Z,23.55
2022-07-29T01:11:14.453Z,23.56
2022-07-29T01:13:20.148Z,23.58
2022-07-29T01:15:27.947Z,23.60
2022-07-29T01:17:36.405Z,23.59
2022-07-29T01:19:49.424Z,23.60
2022-07-29T01:21:55.778Z,23.62
2022-07-29T01:24:10.762Z,23.65
2022-07-29T01:26:27.042Z,23.67
2022-07-29T01:28:50.835Z,23.63
2022-07-29T01:30:57.430Z,23.61
2022-07-29T01:33:05.573Z,23.59
2022-07-29T01:35:14.245Z,23.59
2022-07-29T01:37:22.044Z,23.54
2022-07-29T01:39:29.773Z,23.44
2022-07-29T01:41:40.004Z,23.39
2022-07-29T01:43:53.322Z,23.35
2022-07-29T01:46:01.601Z,23.31
2022-07-29T01:48:07.454Z,23.30
2022-07-29T01:50:14.291Z,23.26
2022-07-29T01:52:22.952Z,23.26
2022-07-29T01:54:30.230Z,23.23
2022-07-29T01:56:35.746Z,23.20
2022-07-29T01:58:42.783Z,23.11
2022-07-29T02:00:50.814Z,23.08
2022-07-29T02:02:57.105Z,23.01
2022-07-29T02:05:02.762Z,22.93
2022-07-29T02:07:08.711Z,22.85
2022-07-29T02:09:14.032Z,22.76
2022-07-29T02:11:18.666Z,22.73
2022-07-29T02:13:25.210Z,22.72
2022-07-29T02:15:31.292Z,22.71
2022-07-29T02:17:43.090Z,22.67
2022-07-29T02:19:48.074Z,22.66
2022-07-29T02:21:55.458Z,22.67
2022-07-29T02:24:03.345Z,22.66
2022-07-29T02:26:09.859Z,22.63
2022-07-29T02:28:15.803Z,22.59
2022-07-29T02:30:21.385Z,22.56
2022-07-29T02:32:26.714Z,22.56
2022-07-29T02:34:34.822Z,22.52
2022-07-29T02:36:40.366Z,22.44
2022-07-29T02:38:52.738Z,22.45
2022-07-29T02:40:59.471Z,22.47
2022-07-29T02:43:05.472Z,22.48
2022-07-29T02:45:10.560Z,22.49
2022-07-29T02:47:20.169Z,22.47
2022-07-29T02:49:33.681Z,22.42
2022-07-29T02:51:45.093Z,22.38
2022-07-29T02:53:51.729Z,22.32
2022-07-29T02:55:59.352Z,22.25
2022-07-29T02:58:05.159Z,22.23
2022-07-29T03:00:11.383Z,22.23
2022-07-29T03:02:18.220Z,22.22
2022-07-29T03:04:23.834Z,22.21
2022-07-29T03:06:38.505Z,22.19
2022-07-29T03:08:46.393Z,22.15
2022-07-29T03:10:51.619Z,22.13
2022-07-29T03:12:56.458Z,22.12
2022-07-29T03:15:02.304Z,22.08
2022-07-29T03:17:07.048Z,22.02
2022-07-29T03:19:11.832Z,21.98
2022-07-29T03:21:16.449Z,21.91
2022-07-29T03:23:23.772Z,21.92
2022-07-29T03:25:31.580Z,21.92
2022-07-29T03:27:36.165Z,21.95
2022-07-29T03:29:40.813Z,21.97
2022-07-29T03:31:50.934Z,22.00
2022-07-29T03:33:55.611Z,22.01
2022-07-29T03:36:00.335Z,22.01
2022-07-29T03:38:04.970Z,21.98
2022-07-29T03:40:12.067Z,21.96
2022-07-29T03:42:20.147Z,21.88
2022-07-29T03:44:25.464Z,21.85
2022-07-29T03:46:32.689Z,21.80
2022-07-29T03:48:38.362Z,21.76
2022-07-29T03:50:43.382Z,21.74
2022-07-29T03:52:48.059Z,21.66
2022-07-29T03:54:52.952Z,21.65
2022-07-29T03:56:58.455Z,21.64
2022-07-29T03:59:06.169Z,21.62
2022-07-29T04:01:11.129Z,21.62
2022-07-29T04:03:16.395Z,21.64
2022-07-29T04:05:21.491Z,21.59
2022-07-29T04:07:26.070Z,21.59
2022-07-29T04:09:30.656Z,21.59
2022-07-29T04:11:35.524Z,21.59
2022-07-29T04:14:00.095Z,21.62
2022-07-29T04:16:07.627Z,21.65
2022-07-29T04:18:12.215Z,21.68
2022-07-29T04:20:16.886Z,21.66
2022-07-29T04:22:21.462Z,21.69
2022-07-29T04:24:27.641Z,21.70
2022-07-29T04:26:32.216Z,21.70
2022-07-29T04:28:37.145Z,21.73
2022-07-29T04:30:42.055Z,21.74
2022-07-29T04:32:49.233Z,21.76
2022-07-29T04:34:53.835Z,21.79
2022-07-29T04:36:59.186Z,21.83
2022-07-29T04:39:04.122Z,21.87
2022-07-29T04:41:09.377Z,21.92
2022-07-29T04:43:16.047Z,21.92
2022-07-29T04:45:22.249Z,21.92
2022-07-29T04:47:27.318Z,21.93
2022-07-29T04:49:34.513Z,21.92
2022-07-29T04:51:39.104Z,21.89
2022-07-29T04:53:43.738Z,21.90
2022-07-29T04:55:48.355Z,21.90
2022-07-29T04:57:52.953Z,21.94
2022-07-29T04:59:57.565Z,21.95
2022-07-29T05:02:02.273Z,21.95
2022-07-29T05:04:07.090Z,21.97
2022-07-29T05:06:14.410Z,21.97
2022-07-29T05:08:19.040Z,21.96
2022-07-29T05:10:23.751Z,21.97
2022-07-29T05:12:28.771Z,21.98
2022-07-29T05:14:33.484Z,21.96
2022-07-29T05:16:38.077Z,21.95
2022-07-29T05:18:43.281Z,21.90
2022-07-29T05:20:48.098Z,21.90
2022-07-29T05:22:57.198Z,21.89
2022-07-29T05:25:06.983Z,21.94
2022-07-29T05:27:13.696Z,22.06
2022-07-29T05:29:44.588Z,22.21
2022-07-29T05:31:44.740Z,22.38
2022-07-29T05:33:49.509Z,22.53
2022-07-29T05:35:58.516Z,22.70
2022-07-29T05:38:08.011Z,22.88
2022-07-29T05:40:13.034Z,23.02
2022-07-29T05:42:17.582Z,23.09
2022-07-29T05:44:22.247Z,23.09
2022-07-29T05:46:30.200Z,23.07
2022-07-29T05:48:34.898Z,23.08
2022-07-29T05:50:44.114Z,23.05
2022-07-29T05:52:53.228Z,23.04
2022-07-29T05:55:03.832Z,23.02
2022-07-29T05:57:08.725Z,23.05
2022-07-29T05:59:17.790Z,23.10
2022-07-29T06:01:23.107Z,23.19
2022-07-29T06:03:27.774Z,23.24
2022-07-29T06:05:32.506Z,23.26
2022-07-29T06:07:37.182Z,23.32
2022-07-29T06:09:43.487Z,23.38
2022-07-29T06:11:50.638Z,23.40
2022-07-29T06:13:55.280Z,23.37
2022-07-29T06:16:00.146Z,23.37
2022-07-29T06:18:04.857Z,23.39
2022-07-29T06:20:10.800Z,23.46
2022-07-29T06:22:15.480Z,23.48
2022-07-29T06:24:20.383Z,23.56
2022-07-29T06:26:30.827Z,23.62
2022-07-29T06:28:39.250Z,23.78
2022-07-29T06:30:44.081Z,23.88
2022-07-29T06:32:48.734Z,23.91
2022-07-29T06:34:59.190Z,24.07
2022-07-29T06:37:16.589Z,24.28
2022-07-29T06:39:21.249Z,24.43
2022-07-29T06:41:25.889Z,24.58
2022-07-29T06:43:32.548Z,24.67
2022-07-29T06:45:42.421Z,24.72
2022-07-29T06:47:47.546Z,24.77
2022-07-29T06:49:52.151Z,24.85
2022-07-29T06:51:56.773Z,24.91
2022-07-29T06:54:03.314Z,25.00
2022-07-29T06:56:09.402Z,25.06
2022-07-29T06:58:15.264Z,25.14
2022-07-29T07:00:20.036Z,25.21
2022-07-29T07:02:27.285Z,25.30
2022-07-29T07:04:33.055Z,25.36
2022-07-29T07:06:37.683Z,25.39
2022-07-29T07:08:42.256Z,25.41
2022-07-29T07:10:46.857Z,25.47
2022-07-29T07:12:51.764Z,25.47
2022-07-29T07:14:56.302Z,25.56
2022-07-29T07:17:01.404Z,25.58
2022-07-29T07:19:08.639Z,25.64
2022-07-29T07:21:13.320Z,25.69
2022-07-29T07:23:24.039Z,25.69
2022-07-29T07:25:28.788Z,25.73
2022-07-29T07:27:33.633Z,25.81
2022-07-29T07:29:38.220Z,25.84
2022-07-29T07:31:42.952Z,25.87
2022-07-29T07:33:47.658Z,25.91
2022-07-29T07:35:54.894Z,25.96
2022-07-29T07:37:59.826Z,26.00
2022-07-29T07:40:04.691Z,25.99
2022-07-29T07:42:11.331Z,26.00
2022-07-29T07:44:16.330Z,26.04
2022-07-29T07:46:21.138Z,26.11
2022-07-29T07:48:25.742Z,26.19
2022-07-29T07:50:30.483Z,26.29
2022-07-29T07:52:37.803Z,26.35
2022-07-29T07:54:42.423Z,26.42
2022-07-29T07:56:47.173Z,26.47
2022-07-29T07:58:52.964Z,26.49
2022-07-29T08:00:57.657Z,26.42
2022-07-29T08:03:02.364Z,26.48
2022-07-29T08:05:07.314Z,26.56
2022-07-29T08:07:17.377Z,26.64
2022-07-29T08:09:29.786Z,26.73
2022-07-29T08:11:34.834Z,26.87
2022-07-29T08:13:44.164Z,26.97
2022-07-29T08:15:48.743Z,27.11
2022-07-29T08:17:53.330Z,27.24
2022-07-29T08:19:57.870Z,27.32
2022-07-29T08:22:02.469Z,27.37
2022-07-29T08:24:19.966Z,27.41
2022-07-29T08:26:27.189Z,27.41
2022-07-29T08:28:31.912Z,27.42
2022-07-29T08:30:36.462Z,27.52
2022-07-29T08:32:53.756Z,27.61
2022-07-29T08:34:59.330Z,27.75
2022-07-29T08:37:04.034Z,27.88
2022-07-29T08:39:08.629Z,28.06
2022-07-29T08:41:13.308Z,28.21
2022-07-29T08:43:20.557Z,28.33
2022-07-29T08:45:28.945Z,28.48
2022-07-29T08:47:33.566Z,28.67
2022-07-29T08:49:39.257Z,28.83
2022-07-29T08:51:49.430Z,29.01
2022-07-29T08:53:54.579Z,29.17
2022-07-29T08:55:59.264Z,29.25
2022-07-29T08:58:04.695Z,29.34
2022-07-29T09:00:12.478Z,29.26
2022-07-29T09:02:22.487Z,29.36
2022-07-29T09:04:28.990Z,29.29
2022-07-29T09:06:35.188Z,29.30
2022-07-29T09:08:40.031Z,29.34
2022-07-29T09:10:44.698Z,29.40
2022-07-29T09:12:49.884Z,29.48
2022-07-29T09:14:54.606Z,29.46
2022-07-29T09:17:02.135Z,29.42
2022-07-29T09:19:22.804Z,29.29
2022-07-29T09:21:39.804Z,29.16
2022-07-29T09:23:44.652Z,28.98
2022-07-29T09:25:49.300Z,29.00
2022-07-29T09:27:54.546Z,28.96
2022-07-29T09:30:00.031Z,29.06
2022-07-29T09:32:10.452Z,29.18
2022-07-29T09:34:15.515Z,29.11
2022-07-29T09:36:20.133Z,29.18
2022-07-29T09:38:24.809Z,29.27
2022-07-29T09:40:30.147Z,29.40
2022-07-29T09:42:34.950Z,29.53
2022-07-29T09:44:46.665Z,29.68
2022-07-29T09:47:06.940Z,29.77
2022-07-29T09:49:15.892Z,29.96
2022-07-29T09:51:26.727Z,30.10
2022-07-29T09:53:36.312Z,30.05
2022-07-29T09:55:51.639Z,30.14
2022-07-29T09:57:56.912Z,30.23
2022-07-29T10:00:02.054Z,30.33
2022-07-29T10:02:21.970Z,30.32
2022-07-29T10:04:40.009Z,30.25
2022-07-29T10:07:04.500Z,30.13
2022-07-29T10:09:12.953Z,30.01
2022-07-29T10:11:18.966Z,29.99
2022-07-29T10:13:23.732Z,29.90
2022-07-29T10:15:29.244Z,29.68
2022-07-29T10:17:33.868Z,29.77
2022-07-29T10:19:43.558Z,29.93
2022-07-29T10:21:48.558Z,29.91
2022-07-29T10:23:53.385Z,29.89
2022-07-29T10:25:59.882Z,29.91
2022-07-29T10:28:04.520Z,29.83
2022-07-29T10:30:10.754Z,29.91
2022-07-29T10:32:28.398Z,29.99
2022-07-29T10:34:40.743Z,30.17
2022-07-29T10:36:56.953Z,30.17
2022-07-29T10:39:07.371Z,30.23
2022-07-29T10:41:29.040Z,30.26
2022-07-29T10:43:39.423Z,30.19
2022-07-29T10:45:47.480Z,30.18
2022-07-29T10:48:06.014Z,30.18
2022-07-29T10:50:17.321Z,30.15
2022-07-29T10:52:26.544Z,30.23
2022-07-29T10:54:43.908Z,30.29
2022-07-29T10:56:48.850Z,30.29
2022-07-29T10:59:25.233Z,30.26
2022-07-29T11:01:37.410Z,29.98
2022-07-29T11:03:50.483Z,29.84
2022-07-29T11:06:00.209Z,29.76
2022-07-29T11:08:27.899Z,29.76
2022-07-29T11:10:32.918Z,29.87
2022-07-29T11:12:50.647Z,29.95
2022-07-29T11:15:03.646Z,30.12
2022-07-29T11:17:09.198Z,30.16
2022-07-29T11:19:30.084Z,30.10
2022-07-29T11:21:54.855Z,30.17
2022-07-29T11:24:18.724Z,30.21
2022-07-29T11:26:36.983Z,30.35
2022-07-29T11:28:52.475Z,30.31
2022-07-29T11:30:57.891Z,30.35
2022-07-29T11:33:02.815Z,30.40
2022-07-29T11:35:37.047Z,30.50
2022-07-29T11:37:45.829Z,30.66
2022-07-29T11:40:14.169Z,30.77
2022-07-29T11:42:44.564Z,30.85
2022-07-29T11:44:58.827Z,30.84
2022-07-29T11:47:10.526Z,30.83
2022-07-29T11:49:15.553Z,30.89
2022-07-29T11:51:20.670Z,30.92
2022-07-29T11:53:37.893Z,30.95
2022-07-29T11:55:51.007Z,30.76
2022-07-29T11:58:03.833Z,30.71
2022-07-29T12:00:12.443Z,30.56
2022-07-29T12:02:37.104Z,30.55
2022-07-29T12:04:52.145Z,30.56
2022-07-29T12:07:00.487Z,30.64
2022-07-29T12:09:14.387Z,30.72
2022-07-29T12:11:21.691Z,30.74
2022-07-29T12:13:42.315Z,30.71
2022-07-29T12:15:55.438Z,30.71
2022-07-29T12:18:03.866Z,30.78
2022-07-29T12:20:09.672Z,30.83
2022-07-29T12:22:27.994Z,30.88
2022-07-29T12:24:46.253Z,30.80
2022-07-29T12:26:54.378Z,30.79
2022-07-29T12:29:02.380Z,30.83
2022-07-29T12:31:08.506Z,30.81
2022-07-29T12:33:20.914Z,30.85
2022-07-29T12:35:25.678Z,30.94
2022-07-29T12:37:30.981Z,31.07
2022-07-29T12:39:46.435Z,31.19
2022-07-29T12:41:51.107Z,31.29
2022-07-29T12:43:57.255Z,31.34
2022-07-29T12:46:15.749Z,31.30
2022-07-29T12:48:20.628Z,31.25
2022-07-29T12:50:26.666Z,31.34
2022-07-29T12:52:32.197Z,31.37
2022-07-29T12:54:36.739Z,31.40
2022-07-29T12:56:43.250Z,31.47
2022-07-29T12:58:51.311Z,31.53
2022-07-29T13:01:05.180Z,31.60
2022-07-29T13:03:21.696Z,31.67
2022-07-29T13:05:26.872Z,31.82
2022-07-29T13:07:54.570Z,31.92
2022-07-29T13:09:58.088Z,31.78
2022-07-29T13:12:09.424Z,31.64
2022-07-29T13:14:14.970Z,31.67
2022-07-29T13:16:22.666Z,31.69
2022-07-29T13:18:30.403Z,31.65
2022-07-29T13:20:36.179Z,31.27
2022-07-29T13:22:40.851Z,30.97
2022-07-29T13:24:52.505Z,30.75
2022-07-29T13:26:57.166Z,30.73
2022-07-29T13:29:01.812Z,30.81
2022-07-29T13:31:06.456Z,30.88
2022-07-29T13:33:13.667Z,31.02
2022-07-29T13:35:18.291Z,31.13
2022-07-29T13:37:23.184Z,31.18
2022-07-29T13:39:27.812Z,31.09
2022-07-29T13:41:32.632Z,31.12
2022-07-29T13:43:37.230Z,31.16
2022-07-29T13:45:42.312Z,31.04
2022-07-29T13:47:49.476Z,30.98
2022-07-29T13:49:56.907Z,30.86
2022-07-29T13:52:01.551Z,30.66
2022-07-29T13:54:06.231Z,30.51
2022-07-29T13:56:10.822Z,30.27
2022-07-29T13:58:15.423Z,30.15
2022-07-29T14:00:20.383Z,30.02
2022-07-29T14:02:25.637Z,29.83
2022-07-29T14:04:30.785Z,29.71
2022-07-29T14:06:38.286Z,29.69
2022-07-29T14:08:45.122Z,29.62
2022-07-29T14:10:49.744Z,29.32
2022-07-29T14:12:55.922Z,29.23
2022-07-29T14:15:00.562Z,29.06
2022-07-29T14:17:07.055Z,28.96
2022-07-29T14:19:12.055Z,28.91
2022-07-29T14:21:16.651Z,28.81
2022-07-29T14:23:23.868Z,28.74
2022-07-29T14:25:28.429Z,28.69
2022-07-29T14:27:37.590Z,28.67
2022-07-29T14:29:43.175Z,28.61
2022-07-29T14:31:47.787Z,28.57
2022-07-29T14:33:52.848Z,28.44
2022-07-29T14:36:01.076Z,28.34
2022-07-29T14:38:06.032Z,28.28
2022-07-29T14:40:14.490Z,28.19
2022-07-29T14:42:19.093Z,28.12
2022-07-29T14:44:24.823Z,28.12
2022-07-29T14:46:29.472Z,28.13
2022-07-29T14:48:34.096Z,28.13
2022-07-29T14:50:38.662Z,28.10
2022-07-29T14:52:43.318Z,27.97
2022-07-29T14:54:48.024Z,27.82
2022-07-29T14:56:58.188Z,27.82
2022-07-29T14:59:03.208Z,27.76
2022-07-29T15:01:07.846Z,27.72
2022-07-29T15:03:13.092Z,27.58
2022-07-29T15:05:28.933Z,27.22
2022-07-29T15:07:33.682Z,26.89
2022-07-29T15:09:40.203Z,26.70
2022-07-29T15:11:44.954Z,26.50
2022-07-29T15:13:52.245Z,26.38
2022-07-29T15:16:00.089Z,26.34
2022-07-29T15:18:04.952Z,26.23
2022-07-29T15:20:10.118Z,26.10
2022-07-29T15:22:14.804Z,25.90
2022-07-29T15:24:19.403Z,25.66
2022-07-29T15:26:24.089Z,25.44
2022-07-29T15:28:28.681Z,25.39
2022-07-29T15:30:40.985Z,25.39
2022-07-29T15:32:45.588Z,25.35
2022-07-29T15:34:50.216Z,25.23
2022-07-29T15:36:54.953Z,24.96
2022-07-29T15:38:59.587Z,24.78
2022-07-29T15:41:04.134Z,24.67
2022-07-29T15:43:09.230Z,24.66
2022-07-29T15:45:14.237Z,24.66
2022-07-29T15:47:21.978Z,24.63
2022-07-29T15:49:47.915Z,24.72
2022-07-29T15:51:58.200Z,24.77
2022-07-29T15:54:04.571Z,24.74
2022-07-29T15:56:09.231Z,24.64
2022-07-29T15:58:13.844Z,24.54
2022-07-29T16:00:19.764Z,24.36
2022-07-29T16:02:27.061Z,24.11
2022-07-29T16:04:32.068Z,23.99
2022-07-29T16:06:36.707Z,23.63
2022-07-29T16:08:41.348Z,23.39
2022-07-29T16:10:45.971Z,23.18
2022-07-29T16:12:50.522Z,23.08
2022-07-29T16:14:55.125Z,22.97
2022-07-29T16:17:03.660Z,22.93
2022-07-29T16:19:11.726Z,22.82
2022-07-29T16:21:16.589Z,22.71
2022-07-29T16:23:21.258Z,22.65
2022-07-29T16:25:49.987Z,22.50
2022-07-29T16:27:50.418Z,22.40
2022-07-29T16:29:55.734Z,22.43
2022-07-29T16:32:00.409Z,22.48
2022-07-29T16:34:05.268Z,22.44
2022-07-29T16:36:13.038Z,22.36
2022-07-29T16:38:18.215Z,22.47
2022-07-29T16:40:22.905Z,22.51
2022-07-29T16:42:45.460Z,22.50
2022-07-29T16:44:51.014Z,22.47
2022-07-29T16:46:56.118Z,22.28
2022-07-29T16:49:03.860Z,21.82
2022-07-29T16:51:08.606Z,21.16
2022-07-29T16:53:15.811Z,21.06
2022-07-29T16:55:20.410Z,21.14
2022-07-29T16:57:24.983Z,21.27
2022-07-29T16:59:29.758Z,21.41
2022-07-29T17:01:34.505Z,21.43
2022-07-29T17:04:00.460Z,21.38
2022-07-29T17:06:05.476Z,21.37
2022-07-29T17:08:10.061Z,21.37
2022-07-29T17:10:17.470Z,21.44
2022-07-29T17:12:22.076Z,21.55
2022-07-29T17:14:27.826Z,21.65
2022-07-29T17:16:32.481Z,21.73
2022-07-29T17:18:37.354Z,21.78
2022-07-29T17:20:42.035Z,21.87
2022-07-29T17:22:46.667Z,21.93
2022-07-29T17:24:51.325Z,22.06
2022-07-29T17:26:58.875Z,22.20
2022-07-29T17:29:03.710Z,22.28
2022-07-29T17:31:08.547Z,22.39
2022-07-29T17:33:13.281Z,22.50
2022-07-29T17:35:30.268Z,22.42
2022-07-29T17:37:34.899Z,22.35
2022-07-29T17:39:40.915Z,22.40
2022-07-29T17:41:46.926Z,22.44
2022-07-29T17:43:54.430Z,22.51
2022-07-29T17:45:59.628Z,22.59
2022-07-29T17:48:04.352Z,22.56
2022-07-29T17:50:09.233Z,22.62
2022-07-29T17:52:13.989Z,22.55
2022-07-29T17:54:18.565Z,22.52
2022-07-29T17:56:23.340Z,22.49
2022-07-29T17:58:28.024Z,22.35
2022-07-29T18:00:35.281Z,22.31
2022-07-29T18:02:39.944Z,22.18
2022-07-29T18:04:44.583Z,22.09
2022-07-29T18:06:54.357Z,22.07
2022-07-29T18:08:58.972Z,22.07
2022-07-29T18:11:03.506Z,21.98
2022-07-29T18:13:08.152Z,22.03
2022-07-29T18:15:13.272Z,22.06
2022-07-29T18:17:20.438Z,22.08
2022-07-29T18:19:25.070Z,21.85
2022-07-29T18:21:42.654Z,21.80
2022-07-29T18:23:54.199Z,21.85
2022-07-29T18:25:58.950Z,21.92
2022-07-29T18:28:03.761Z,22.02
2022-07-29T18:30:09.352Z,22.05
2022-07-29T18:32:14.027Z,22.12
2022-07-29T18:34:21.473Z,22.07
2022-07-29T18:36:26.050Z,22.10
2022-07-29T18:38:30.667Z,22.19
2022-07-29T18:40:35.510Z,22.10
2022-07-29T18:42:40.793Z,22.08
2022-07-29T18:44:49.153Z,22.14
2022-07-29T18:46:55.659Z,22.15
2022-07-29T18:49:00.403Z,22.11
2022-07-29T18:51:09.108Z,22.20
2022-07-29T18:53:14.089Z,22.22
2022-07-29T18:55:18.736Z,22.29
2022-07-29T18:57:54.834Z,22.30
2022-07-29T18:59:48.952Z,22.33
2022-07-29T19:01:53.691Z,22.32
2022-07-29T19:03:58.302Z,22.36
2022-07-29T19:06:02.938Z,22.38
2022-07-29T19:08:11.614Z,22.41
2022-07-29T19:10:16.347Z,22.37
2022-07-29T19:12:20.972Z,22.26
2022-07-29T19:14:25.560Z,22.10
2022-07-29T19:16:30.376Z,22.04
2022-07-29T19:18:35.015Z,21.89
2022-07-29T19:20:39.826Z,21.76
2022-07-29T19:22:44.385Z,21.68
2022-07-29T19:24:51.647Z,21.61
2022-07-29T19:26:57.420Z,21.59
2022-07-29T19:29:02.507Z,21.63
2022-07-29T19:31:07.903Z,21.70
2022-07-29T19:33:14.661Z,21.81
2022-07-29T19:35:31.691Z,21.95
2022-07-29T19:37:36.256Z,22.08
2022-07-29T19:39:40.920Z,22.08
2022-07-29T19:41:48.361Z,21.88
2022-07-29T19:44:01.933Z,21.83
2022-07-29T19:46:06.717Z,21.81
2022-07-29T19:48:11.323Z,21.75
2022-07-29T19:50:16.519Z,21.78
2022-07-29T19:52:21.177Z,21.80
2022-07-29T19:54:26.938Z,21.75
2022-07-29T19:56:32.029Z,21.74
2022-07-29T19:58:41.254Z,21.65
2022-07-29T20:00:45.895Z,21.67
2022-07-29T20:02:50.573Z,21.67
2022-07-29T20:04:55.622Z,21.77
2022-07-29T20:07:01.869Z,21.86
2022-07-29T20:09:07.174Z,21.92
2022-07-29T20:11:11.804Z,21.99
2022-07-29T20:13:16.372Z,21.96
2022-07-29T20:15:23.526Z,21.87
2022-07-29T20:17:29.022Z,21.79
2022-07-29T20:19:33.716Z,21.72
2022-07-29T20:21:38.301Z,21.68
2022-07-29T20:23:42.946Z,21.61
2022-07-29T20:25:47.626Z,21.56
2022-07-29T20:27:53.259Z,21.52
2022-07-29T20:29:57.860Z,21.52
2022-07-29T20:32:05.805Z,21.56
2022-07-29T20:34:10.369Z,21.64
2022-07-29T20:36:15.025Z,21.65
2022-07-29T20:38:22.004Z,21.64
2022-07-29T20:40:27.433Z,21.65
2022-07-29T20:42:31.989Z,21.61
2022-07-29T20:44:36.937Z,21.62
2022-07-29T20:46:42.055Z,21.52
2022-07-29T20:48:49.811Z,21.50
2022-07-29T20:50:55.103Z,21.44
2022-07-29T20:52:59.707Z,21.53
2022-07-29T20:55:04.301Z,21.62
2022-07-29T20:57:10.204Z,21.69
2022-07-29T20:59:14.803Z,21.76
2022-07-29T21:01:22.016Z,21.81
2022-07-29T21:03:26.597Z,21.86
2022-07-29T21:05:33.819Z,21.87
2022-07-29T21:07:38.381Z,21.88
2022-07-29T21:09:42.965Z,21.86
2022-07-29T21:11:47.531Z,21.86
2022-07-29T21:13:52.153Z,21.89
2022-07-29T21:16:04.271Z,21.89
2022-07-29T21:18:26.906Z,21.86
2022-07-29T21:20:34.549Z,21.85
2022-07-29T21:22:39.347Z,21.85
2022-07-29T21:24:43.936Z,21.86
2022-07-29T21:27:10.970Z,21.86
2022-07-29T21:29:10.466Z,21.77
2022-07-29T21:31:16.762Z,21.80
2022-07-29T21:33:21.469Z,21.85
2022-07-29T21:36:01.797Z,21.88
2022-07-29T21:37:53.280Z,21.92
2022-07-29T21:39:57.902Z,21.95
2022-07-29T21:42:02.477Z,21.98
2022-07-29T21:44:07.117Z,21.95
2022-07-29T21:46:12.047Z,21.92
2022-07-29T21:48:16.708Z,21.93
2022-07-29T21:50:21.372Z,21.96
2022-07-29T21:52:25.995Z,21.91
2022-07-29T21:54:33.205Z,21.79
2022-07-29T21:56:37.856Z,21.74
2022-07-29T21:58:42.476Z,21.63
2022-07-29T22:00:47.363Z,21.59
2022-07-29T22:02:51.948Z,21.56
2022-07-29T22:04:56.535Z,21.55
2022-07-29T22:07:01.369Z,21.58
2022-07-29T22:09:06.419Z,21.62
2022-07-29T22:11:13.631Z,21.64
2022-07-29T22:13:18.393Z,21.61
2022-07-29T22:15:23.268Z,21.66
2022-07-29T22:17:27.893Z,21.68
2022-07-29T22:19:32.509Z,21.64
2022-07-29T22:21:37.194Z,21.56
2022-07-29T22:23:41.825Z,21.53
2022-07-29T22:25:46.454Z,21.55
2022-07-29T22:27:53.584Z,21.55
2022-07-29T22:29:58.207Z,21.56
2022-07-29T22:32:02.767Z,21.61
2022-07-29T22:34:12.753Z,21.61
2022-07-29T22:36:18.039Z,21.63
2022-07-29T22:38:23.699Z,21.66
2022-07-29T22:40:30.626Z,21.65
2022-07-29T22:42:35.900Z,21.67
2022-07-29T22:44:47.934Z,21.67
2022-07-29T22:46:52.542Z,21.64
2022-07-29T22:48:57.800Z,21.57
2022-07-29T22:51:02.450Z,21.49
2022-07-29T22:53:07.001Z,21.47
2022-07-29T22:55:12.241Z,21.54
2022-07-29T22:57:16.829Z,21.59
2022-07-29T22:59:21.603Z,21.61
2022-07-29T23:01:35.820Z,21.58
2022-07-29T23:03:51.117Z,21.55
2022-07-29T23:05:56.086Z,21.51
2022-07-29T23:08:00.701Z,21.47
2022-07-29T23:10:05.308Z,21.44
2022-07-29T23:12:10.448Z,21.31
2022-07-29T23:14:15.054Z,21.28
2022-07-29T23:16:26.521Z,21.28
2022-07-29T23:18:34.202Z,21.27
2022-07-29T23:20:39.063Z,21.23
2022-07-29T23:22:43.595Z,21.18
2022-07-29T23:24:48.257Z,21.14
2022-07-29T23:26:52.826Z,21.13
2022-07-29T23:28:57.386Z,21.12
2022-07-29T23:31:02.118Z,21.09
2022-07-29T23:33:06.889Z,21.10
2022-07-29T23:35:16.342Z,21.08
2022-07-29T23:37:21.000Z,21.09
2022-07-29T23:39:25.649Z,21.08
2022-07-29T23:41:31.858Z,21.08
2022-07-29T23:43:36.432Z,21.06
2022-07-29T23:45:44.496Z,21.09
2022-07-29T23:47:49.883Z,21.15
2022-07-29T23:49:54.459Z,21.15
2022-07-29T23:52:01.649Z,21.19
2022-07-29T23:54:06.346Z,21.25
2022-07-29T23:56:10.925Z,21.27
2022-07-29T23:58:15.553Z,21.31
